Time;durP1;ratioP1;P1;durP2;ratioP2;P2;SDS_P1;SDS_P2;PMS_P1;PMS_P2;Temp;Humidity;BMP_temperature;BMP_pressure;BME280_temperature;BME280_humidity;BME280_pressure;Samples;Min_cycle;Max_cycle;Signal;HPM_P1;HPM_P2
2023/05/20 00:00:02;;;;;;;;;;;18.20;99.90;;;;;;5071540;28;20057;-78
2023/05/20 00:02:28;;;;;;;;;;;18.20;99.90;;;;;;5071059;28;19908;-77
2023/05/20 00:04:53;;;;;;;;;;;18.20;99.90;;;;;;5070572;28;19908;-78
2023/05/20 00:07:19;;;;;;;;;;;18.20;99.90;;;;;;5071506;28;20042;-77
2023/05/20 00:09:44;;;;;;;;;;;18.20;99.90;;;;;;5071414;28;19995;-78
2023/05/20 00:12:10;;;;;;;;;;;18.20;99.90;;;;;;5071650;28;20272;-78
2023/05/20 00:14:35;;;;;;;;;;;18.20;99.90;;;;;;5071380;28;19909;-77
2023/05/20 00:17:01;;;;;;;;;;;18.10;99.90;;;;;;5071223;28;19905;-78
2023/05/20 00:19:26;;;;;;;;;;;18.00;99.90;;;;;;5071167;28;19983;-78
2023/05/20 00:21:52;;;;;;;;;;;17.90;99.90;;;;;;5086677;28;19908;-77
2023/05/20 00:24:18;;;;;;;;;;;17.80;99.90;;;;;;5071245;28;19916;-78
2023/05/20 00:26:43;;;;;;;;;;;17.70;99.90;;;;;;5070952;28;20329;-78
2023/05/20 00:29:09;;;;;;;;;;;17.60;99.90;;;;;;5071128;28;19928;-77
2023/05/20 00:31:34;;;;;;;;;;;17.60;99.90;;;;;;5070983;28;20289;-77
2023/05/20 00:34:00;;;;;;;;;;;17.60;99.90;;;;;;5070914;28;19914;-77
2023/05/20 00:36:26;;;;;;;;;;;17.60;99.90;;;;;;5071490;28;19904;-77
2023/05/20 00:38:51;;;;;;;;;;;17.50;99.90;;;;;;5086255;28;19908;-78
2023/05/20 00:41:17;;;;;;;;;;;17.50;99.90;;;;;;5070839;28;20331;-77
2023/05/20 00:43:42;;;;;;;;;;;17.50;99.90;;;;;;5070857;28;20379;-77
2023/05/20 00:46:08;;;;;;;;;;;17.50;99.90;;;;;;5086627;28;20717;-78
2023/05/20 00:48:41;;;;;;;;;;;17.60;99.90;;;;;;5070813;28;20373;-78
2023/05/20 00:51:07;;;;;;;;;;;17.60;99.90;;;;;;5070407;28;20274;-78
2023/05/20 00:53:33;;;;;;;;;;;17.60;99.90;;;;;;5070617;28;19915;-78
2023/05/20 00:55:59;;;;;;;;;;;17.60;99.90;;;;;;5070500;28;19915;-78
2023/05/20 00:58:25;;;;;;;;;;;17.60;99.90;;;;;;5086154;28;19908;-77
2023/05/20 01:00:50;;;;;;;;;;;17.50;99.90;;;;;;5086228;28;20237;-78
2023/05/20 01:03:16;;;;;;;;;;;17.50;99.90;;;;;;5085912;28;20388;-77
2023/05/20 01:05:42;;;;;;;;;;;17.50;99.90;;;;;;5070440;28;19914;-77
2023/05/20 01:08:07;;;;;;;;;;;17.50;99.90;;;;;;5070217;28;19985;-78
2023/05/20 01:10:34;;;;;;;;;;;17.60;99.90;;;;;;5070364;28;19909;-77
2023/05/20 01:13:02;;;;;;;;;;;17.50;99.90;;;;;;5070136;28;19939;-78
2023/05/20 01:15:28;;;;;;;;;;;17.50;99.90;;;;;;5068753;28;19912;-77
2023/05/20 01:17:57;;;;;;;;;;;17.60;99.90;;;;;;5068856;28;20430;-76
2023/05/20 01:20:23;;;;;;;;;;;17.60;99.90;;;;;;5069999;28;19914;-76
2023/05/20 01:22:53;;;;;;;;;;;17.50;99.90;;;;;;5069916;28;19966;-78
2023/05/20 01:25:19;;;;;;;;;;;17.50;99.90;;;;;;5069953;28;19912;-78
2023/05/20 01:27:45;;;;;;;;;;;17.40;99.90;;;;;;5068586;28;19904;-77
2023/05/20 01:30:11;;;;;;;;;;;17.40;99.90;;;;;;5069686;28;19920;-77
2023/05/20 01:32:39;;;;;;;;;;;17.40;99.90;;;;;;5069696;28;19923;-79
2023/05/20 01:35:06;;;;;;;;;;;17.50;99.90;;;;;;5069804;28;19908;-78
2023/05/20 01:37:33;;;;;;;;;;;17.60;99.90;;;;;;5068419;28;19908;-78
2023/05/20 01:39:59;;;;;;;;;;;17.50;99.90;;;;;;5069586;28;20377;-77
2023/05/20 01:42:25;;;;;;;;;;;17.50;99.90;;;;;;5069703;28;19995;-78
2023/05/20 01:44:51;;;;;;;;;;;17.50;99.90;;;;;;5069427;28;19930;-78
2023/05/20 01:47:17;;;;;;;;;;;17.50;99.90;;;;;;5069598;28;19909;-78
2023/05/20 01:49:44;;;;;;;;;;;17.40;99.90;;;;;;5069469;28;19908;-78
2023/05/20 01:52:10;;;;;;;;;;;17.40;99.90;;;;;;5085000;28;19946;-77
2023/05/20 01:54:36;;;;;;;;;;;17.40;99.90;;;;;;5069606;28;19915;-77
2023/05/20 01:57:01;;;;;;;;;;;17.40;99.90;;;;;;5069387;28;19908;-78
2023/05/20 01:59:27;;;;;;;;;;;17.40;99.90;;;;;;5069308;28;20402;-77
2023/05/20 02:01:52;;;;;;;;;;;17.40;99.90;;;;;;5068247;28;19908;-78
2023/05/20 02:04:18;;;;;;;;;;;17.40;99.90;;;;;;5069209;28;20452;-77
2023/05/20 02:06:44;;;;;;;;;;;17.40;99.90;;;;;;5069193;28;19979;-78
2023/05/20 02:09:10;;;;;;;;;;;17.50;99.90;;;;;;5069567;28;19911;-77
2023/05/20 02:11:35;;;;;;;;;;;17.40;99.90;;;;;;5069131;28;19924;-78
2023/05/20 02:14:01;;;;;;;;;;;17.40;99.90;;;;;;5069069;28;19909;-78
2023/05/20 02:16:26;;;;;;;;;;;17.50;99.90;;;;;;5069205;28;19916;-78
2023/05/20 02:18:52;;;;;;;;;;;17.50;99.90;;;;;;5068752;28;19908;-78
2023/05/20 02:21:18;;;;;;;;;;;17.50;99.90;;;;;;5069077;28;19961;-78
2023/05/20 02:23:44;;;;;;;;;;;17.40;99.90;;;;;;5068984;28;19912;-77
2023/05/20 02:26:09;;;;;;;;;;;17.50;99.90;;;;;;5084165;28;20490;-77
2023/05/20 02:28:37;;;;;;;;;;;17.40;99.90;;;;;;5084490;28;19908;-78
2023/05/20 02:31:02;;;;;;;;;;;17.40;99.90;;;;;;5068824;28;19928;-78
2023/05/20 02:33:28;;;;;;;;;;;17.40;99.90;;;;;;5068877;28;20296;-78
2023/05/20 02:35:54;;;;;;;;;;;17.30;99.90;;;;;;5069066;28;20389;-79
2023/05/20 02:38:19;;;;;;;;;;;17.30;99.90;;;;;;5068872;28;19943;-78
2023/05/20 02:40:45;;;;;;;;;;;17.40;99.90;;;;;;5068885;28;19955;-78
2023/05/20 02:43:10;;;;;;;;;;;17.30;99.90;;;;;;5068884;28;19904;-77
2023/05/20 02:45:36;;;;;;;;;;;17.40;99.90;;;;;;5068818;28;20377;-77
2023/05/20 02:48:01;;;;;;;;;;;17.50;99.90;;;;;;5068804;28;19961;-78
2023/05/20 02:50:27;;;;;;;;;;;17.50;99.90;;;;;;5084268;28;20463;-77
2023/05/20 02:52:52;;;;;;;;;;;17.50;99.90;;;;;;5067361;28;19948;-79
2023/05/20 02:55:18;;;;;;;;;;;17.40;99.90;;;;;;5084444;28;19912;-78
2023/05/20 02:57:44;;;;;;;;;;;17.30;99.90;;;;;;5068790;28;19908;-77
2023/05/20 03:00:10;;;;;;;;;;;17.20;99.90;;;;;;5068599;28;19947;-78
2023/05/20 03:02:35;;;;;;;;;;;17.20;99.90;;;;;;5067388;28;20452;-78
2023/05/20 03:05:02;;;;;;;;;;;17.10;99.90;;;;;;5068411;28;19908;-77
2023/05/20 03:07:28;;;;;;;;;;;17.10;99.90;;;;;;5068607;28;20389;-78
2023/05/20 03:09:54;;;;;;;;;;;17.10;99.90;;;;;;5068580;28;19908;-77
2023/05/20 03:12:19;;;;;;;;;;;17.10;99.90;;;;;;5068568;28;19974;-78
2023/05/20 03:14:45;;;;;;;;;;;17.00;99.90;;;;;;5068156;28;19939;-78
2023/05/20 03:17:11;;;;;;;;;;;17.10;99.90;;;;;;5068361;28;19995;-77
2023/05/20 03:19:36;;;;;;;;;;;17.00;99.90;;;;;;5067015;28;19915;-78
2023/05/20 03:22:02;;;;;;;;;;;17.00;99.90;;;;;;5068272;28;19908;-78
2023/05/20 03:24:28;;;;;;;;;;;17.00;99.90;;;;;;5068590;28;19908;-78
2023/05/20 03:26:53;;;;;;;;;;;17.00;99.90;;;;;;5068161;28;19905;-76
2023/05/20 03:29:20;;;;;;;;;;;16.90;99.90;;;;;;5068301;28;19978;-78
2023/05/20 03:31:45;;;;;;;;;;;16.90;99.90;;;;;;5083942;28;20387;-78
2023/05/20 03:34:11;;;;;;;;;;;16.80;99.90;;;;;;5068275;28;19912;-77
2023/05/20 03:36:36;;;;;;;;;;;16.70;99.90;;;;;;5068372;28;19909;-78
2023/05/20 03:39:03;;;;;;;;;;;16.60;99.90;;;;;;5071467;28;19904;-78
2023/05/20 03:41:28;;;;;;;;;;;16.50;99.90;;;;;;5072245;28;20002;-78
2023/05/20 03:43:54;;;;;;;;;;;16.50;99.90;;;;;;5071904;28;20026;-78
2023/05/20 03:46:19;;;;;;;;;;;16.40;99.90;;;;;;5071880;28;20045;-78
2023/05/20 03:48:45;;;;;;;;;;;16.30;99.90;;;;;;5071678;28;19908;-78
2023/05/20 03:51:10;;;;;;;;;;;16.30;99.90;;;;;;5071834;28;20355;-78
2023/05/20 03:53:36;;;;;;;;;;;16.20;99.90;;;;;;5071707;28;19912;-77
2023/05/20 03:56:01;;;;;;;;;;;16.20;99.90;;;;;;5071621;28;19908;-78
2023/05/20 03:58:30;;;;;;;;;;;16.30;99.90;;;;;;5071800;28;19905;-77
2023/05/20 04:00:55;;;;;;;;;;;16.40;99.90;;;;;;5071380;28;20005;-79
2023/05/20 04:03:21;;;;;;;;;;;16.40;99.90;;;;;;5087199;28;19958;-78
2023/05/20 04:05:47;;;;;;;;;;;16.50;99.90;;;;;;5071568;28;19908;-78
2023/05/20 04:08:13;;;;;;;;;;;16.60;99.90;;;;;;5087081;28;20019;-78
2023/05/20 04:10:41;;;;;;;;;;;16.70;99.90;;;;;;5071356;28;19916;-77
2023/05/20 04:13:07;;;;;;;;;;;16.70;99.90;;;;;;5071440;28;19912;-78
2023/05/20 04:15:37;;;;;;;;;;;16.80;99.90;;;;;;5071335;28;19911;-78
2023/05/20 04:18:04;;;;;;;;;;;17.00;99.90;;;;;;5071054;28;20300;-78
2023/05/20 04:20:30;;;;;;;;;;;17.10;99.90;;;;;;5071528;28;19962;-78
2023/05/20 04:22:55;;;;;;;;;;;17.40;99.90;;;;;;5069759;28;20021;-79
2023/05/20 04:25:21;;;;;;;;;;;17.60;99.90;;;;;;5071294;28;19911;-78
2023/05/20 04:27:48;;;;;;;;;;;17.80;99.90;;;;;;5071128;28;19911;-77
2023/05/20 04:30:15;;;;;;;;;;;17.90;99.90;;;;;;5070419;28;20003;-77
2023/05/20 04:32:41;;;;;;;;;;;18.00;99.90;;;;;;5070613;28;19916;-80
2023/05/20 04:35:10;;;;;;;;;;;18.10;99.90;;;;;;5069893;28;20357;-77
2023/05/20 04:37:36;;;;;;;;;;;18.20;99.90;;;;;;5069714;28;19908;-78
2023/05/20 04:40:02;;;;;;;;;;;18.30;99.90;;;;;;5086471;28;20356;-78
2023/05/20 04:42:28;;;;;;;;;;;18.40;99.90;;;;;;5070864;28;20376;-78
2023/05/20 04:44:54;;;;;;;;;;;18.50;99.90;;;;;;5070529;28;20563;-78
2023/05/20 04:47:19;;;;;;;;;;;18.60;99.90;;;;;;5086209;28;19908;-78
2023/05/20 04:49:45;;;;;;;;;;;18.70;99.90;;;;;;5069968;28;20415;-76
2023/05/20 04:52:11;;;;;;;;;;;18.80;99.90;;;;;;5070359;28;20300;-78
2023/05/20 04:54:36;;;;;;;;;;;18.90;99.90;;;;;;5071039;28;19999;-78
2023/05/20 04:57:02;;;;;;;;;;;19.10;99.90;;;;;;5070262;28;19959;-79
2023/05/20 04:59:27;;;;;;;;;;;19.20;99.90;;;;;;5070316;28;19959;-76
2023/05/20 05:01:53;;;;;;;;;;;19.40;99.90;;;;;;5070088;28;19909;-79
2023/05/20 05:04:18;;;;;;;;;;;19.50;99.60;;;;;;5070239;28;19908;-77
2023/05/20 05:06:44;;;;;;;;;;;19.70;98.80;;;;;;5085616;28;19909;-77
2023/05/20 05:09:09;;;;;;;;;;;19.90;96.70;;;;;;5069965;28;19915;-77
2023/05/20 05:11:35;;;;;;;;;;;20.10;93.70;;;;;;5070024;28;19966;-76
2023/05/20 05:14:00;;;;;;;;;;;20.20;93.90;;;;;;5069950;28;19916;-77
2023/05/20 05:16:26;;;;;;;;;;;20.50;92.40;;;;;;5069841;28;19912;-76
2023/05/20 05:18:51;;;;;;;;;;;20.80;90.30;;;;;;5069296;28;19908;-78
2023/05/20 05:21:17;;;;;;;;;;;20.80;83.90;;;;;;5085274;28;19934;-78
2023/05/20 05:23:42;;;;;;;;;;;20.90;83.30;;;;;;5069792;28;20385;-77
2023/05/20 05:26:16;;;;;;;;;;;20.90;81.50;;;;;;5085376;28;20348;-77
2023/05/20 05:28:44;;;;;;;;;;;20.90;82.00;;;;;;5069214;28;19904;-77
2023/05/20 05:31:10;;;;;;;;;;;20.80;82.20;;;;;;5069615;28;19991;-80
2023/05/20 05:33:35;;;;;;;;;;;20.90;83.40;;;;;;5069648;28;20007;-78
2023/05/20 05:36:01;;;;;;;;;;;21.00;81.60;;;;;;5069169;28;19916;-78
2023/05/20 05:38:27;;;;;;;;;;;21.10;79.40;;;;;;5085034;28;19915;-79
2023/05/20 05:40:52;;;;;;;;;;;21.20;78.70;;;;;;5085064;28;19908;-79
2023/05/20 05:43:18;;;;;;;;;;;21.30;78.60;;;;;;5085034;28;19908;-79
2023/05/20 05:45:43;;;;;;;;;;;21.50;79.80;;;;;;5067871;28;20234;-79
2023/05/20 05:48:09;;;;;;;;;;;21.90;77.50;;;;;;5069111;28;19986;-78
2023/05/20 05:50:34;;;;;;;;;;;22.40;73.10;;;;;;5069160;28;19904;-79
2023/05/20 05:53:00;;;;;;;;;;;22.90;69.40;;;;;;5069317;28;19924;-79
2023/05/20 05:55:25;;;;;;;;;;;23.30;68.00;;;;;;5069162;28;19905;-80
2023/05/20 05:57:51;;;;;;;;;;;23.40;67.60;;;;;;5069103;28;19959;-78
2023/05/20 06:00:17;;;;;;;;;;;23.90;65.50;;;;;;5068848;28;19904;-77
2023/05/20 06:02:43;;;;;;;;;;;24.30;62.60;;;;;;5068137;28;19909;-79
2023/05/20 06:05:08;;;;;;;;;;;24.60;61.30;;;;;;5067661;28;20403;-79
2023/05/20 06:07:34;;;;;;;;;;;24.70;60.50;;;;;;5068733;28;20252;-79
2023/05/20 06:09:59;;;;;;;;;;;24.80;60.00;;;;;;5068683;28;19904;-79
2023/05/20 06:12:25;;;;;;;;;;;25.40;59.20;;;;;;5069222;28;19916;-79
2023/05/20 06:14:51;;;;;;;;;;;25.90;57.80;;;;;;5068573;28;19912;-80
2023/05/20 06:17:16;;;;;;;;;;;26.30;55.30;;;;;;5068604;28;20377;-79
2023/05/20 06:19:42;;;;;;;;;;;26.40;54.40;;;;;;5084720;28;20395;-78
2023/05/20 06:22:07;;;;;;;;;;;26.60;54.00;;;;;;5068597;28;20385;-79
2023/05/20 06:24:33;;;;;;;;;;;26.60;53.60;;;;;;5084319;28;19967;-79
2023/05/20 06:26:58;;;;;;;;;;;26.60;54.00;;;;;;5068514;28;19912;-79
2023/05/20 06:29:24;;;;;;;;;;;26.70;54.20;;;;;;5083796;28;19966;-78
2023/05/20 06:31:49;;;;;;;;;;;26.80;53.20;;;;;;5068738;28;20062;-79
2023/05/20 06:34:15;;;;;;;;;;;26.90;52.60;;;;;;5068964;28;19957;-79
2023/05/20 06:36:40;;;;;;;;;;;27.10;51.70;;;;;;5068561;28;20009;-77
2023/05/20 06:39:11;;;;;;;;;;;27.10;51.30;;;;;;5068945;28;20287;-78
2023/05/20 06:41:40;;;;;;;;;;;27.40;53.00;;;;;;5068703;28;19905;-76
2023/05/20 06:44:06;;;;;;;;;;;27.20;52.00;;;;;;5068430;28;19908;-76
2023/05/20 06:46:32;;;;;;;;;;;27.10;51.00;;;;;;5068502;28;20253;-78
2023/05/20 06:48:57;;;;;;;;;;;26.90;52.50;;;;;;5068318;28;19969;-79
2023/05/20 06:51:23;;;;;;;;;;;27.40;52.00;;;;;;5068322;28;19933;-78
2023/05/20 06:53:49;;;;;;;;;;;27.20;51.40;;;;;;5068577;28;20303;-78
2023/05/20 06:56:14;;;;;;;;;;;27.30;52.80;;;;;;5068372;28;19908;-76
2023/05/20 06:58:40;;;;;;;;;;;27.30;51.70;;;;;;5068217;28;19912;-76
2023/05/20 07:01:05;;;;;;;;;;;27.40;53.10;;;;;;5083917;28;19916;-75
2023/05/20 07:03:31;;;;;;;;;;;27.40;51.30;;;;;;5068338;28;20352;-75
2023/05/20 07:05:57;;;;;;;;;;;27.40;52.10;;;;;;5068296;28;19908;-75
2023/05/20 07:08:23;;;;;;;;;;;27.60;52.50;;;;;;5068398;28;19961;-75
2023/05/20 07:10:48;;;;;;;;;;;27.70;51.40;;;;;;5068297;28;19999;-77
2023/05/20 07:13:14;;;;;;;;;;;27.60;50.50;;;;;;5070516;28;20329;-76
2023/05/20 07:15:39;;;;;;;;;;;27.20;51.60;;;;;;5072746;28;19904;-75
2023/05/20 07:18:05;;;;;;;;;;;27.00;52.20;;;;;;5071925;28;19908;-77
2023/05/20 07:20:30;;;;;;;;;;;27.00;53.20;;;;;;5072339;28;19911;-75
2023/05/20 07:22:56;;;;;;;;;;;27.10;52.40;;;;;;5071633;28;19909;-78
2023/05/20 07:25:21;;;;;;;;;;;27.30;53.20;;;;;;5071391;28;19920;-78
2023/05/20 07:27:47;;;;;;;;;;;27.30;51.90;;;;;;5071235;28;19908;-78
2023/05/20 07:30:13;;;;;;;;;;;27.00;53.50;;;;;;5071149;28;19916;-78
2023/05/20 07:32:38;;;;;;;;;;;27.00;52.80;;;;;;5071855;28;20308;-78
2023/05/20 07:35:04;;;;;;;;;;;27.00;53.00;;;;;;5072111;28;19986;-75
2023/05/20 07:37:30;;;;;;;;;;;27.00;52.70;;;;;;5071913;28;20303;-75
2023/05/20 07:39:55;;;;;;;;;;;27.20;53.50;;;;;;5071758;28;20372;-75
2023/05/20 07:42:21;;;;;;;;;;;27.20;52.60;;;;;;5071897;28;20010;-75
2023/05/20 07:44:46;;;;;;;;;;;26.90;52.70;;;;;;5071549;28;19904;-75
2023/05/20 07:47:12;;;;;;;;;;;27.00;53.10;;;;;;5071877;28;20377;-75
2023/05/20 07:49:38;;;;;;;;;;;27.20;55.10;;;;;;5071688;28;20323;-75
2023/05/20 07:52:03;;;;;;;;;;;27.40;52.60;;;;;;5071290;28;19999;-75
2023/05/20 07:54:29;;;;;;;;;;;27.30;53.00;;;;;;5071649;28;19912;-75
2023/05/20 07:56:54;;;;;;;;;;;27.50;53.90;;;;;;5071403;28;19908;-76
2023/05/20 07:59:20;;;;;;;;;;;27.60;52.90;;;;;;5071343;28;20387;-75
2023/05/20 08:01:45;;;;;;;;;;;27.70;53.30;;;;;;5071421;28;19908;-76
2023/05/20 08:04:11;;;;;;;;;;;27.70;52.00;;;;;;5070109;28;19999;-76
2023/05/20 08:06:37;;;;;;;;;;;27.50;51.60;;;;;;5071184;28;19914;-76
2023/05/20 08:09:03;;;;;;;;;;;27.50;52.90;;;;;;5071381;28;19939;-76
2023/05/20 08:11:28;;;;;;;;;;;27.50;53.70;;;;;;5071134;28;19948;-77
2023/05/20 08:13:54;;;;;;;;;;;27.80;53.10;;;;;;5071225;28;19986;-76
2023/05/20 08:16:20;;;;;;;;;;;27.80;51.20;;;;;;5071302;28;20284;-76
2023/05/20 08:18:46;;;;;;;;;;;27.70;51.40;;;;;;5070705;28;20326;-76
2023/05/20 08:21:12;;;;;;;;;;;28.00;52.50;;;;;;5071020;28;19915;-76
2023/05/20 08:23:38;;;;;;;;;;;28.00;52.50;;;;;;5070357;28;19905;-77
2023/05/20 08:26:03;;;;;;;;;;;28.30;53.50;;;;;;5070365;28;20042;-75
2023/05/20 08:28:30;;;;;;;;;;;28.50;51.90;;;;;;5071092;28;19908;-76
2023/05/20 08:30:56;;;;;;;;;;;28.50;51.70;;;;;;5069229;28;20438;-76
2023/05/20 08:33:23;;;;;;;;;;;28.40;53.00;;;;;;5070779;28;19925;-76
2023/05/20 08:35:49;;;;;;;;;;;28.70;50.40;;;;;;5070696;28;19919;-76
2023/05/20 08:38:14;;;;;;;;;;;28.50;49.80;;;;;;5070637;28;19930;-76
2023/05/20 08:40:40;;;;;;;;;;;28.30;51.10;;;;;;5085897;28;20367;-77
2023/05/20 08:43:06;;;;;;;;;;;28.60;53.50;;;;;;5069838;28;19908;-76
2023/05/20 08:45:32;;;;;;;;;;;28.70;50.80;;;;;;5070875;28;20387;-77
2023/05/20 08:47:57;;;;;;;;;;;28.40;50.60;;;;;;5070534;28;19914;-76
2023/05/20 08:50:23;;;;;;;;;;;28.30;51.20;;;;;;5070321;28;19908;-77
2023/05/20 08:52:49;;;;;;;;;;;28.70;51.10;;;;;;5070251;28;19947;-77
2023/05/20 08:55:16;;;;;;;;;;;29.00;52.20;;;;;;5070472;28;19999;-77
2023/05/20 08:57:44;;;;;;;;;;;29.20;51.00;;;;;;5070402;28;19908;-76
2023/05/20 09:00:12;;;;;;;;;;;29.20;51.00;;;;;;5085830;28;19904;-76
2023/05/20 09:02:38;;;;;;;;;;;29.50;52.20;;;;;;5070045;28;19922;-77
2023/05/20 09:05:04;;;;;;;;;;;29.60;49.20;;;;;;5070123;28;19904;-76
2023/05/20 09:07:29;;;;;;;;;;;29.50;49.10;;;;;;5069905;28;20153;-76
2023/05/20 09:09:55;;;;;;;;;;;29.20;49.30;;;;;;5070107;28;19958;-77
2023/05/20 09:12:21;;;;;;;;;;;29.00;49.10;;;;;;5068721;28;19920;-77
2023/05/20 09:14:47;;;;;;;;;;;29.00;50.40;;;;;;5069815;28;19912;-77
2023/05/20 09:17:12;;;;;;;;;;;29.00;49.90;;;;;;5069997;28;19908;-76
2023/05/20 09:19:38;;;;;;;;;;;29.00;50.70;;;;;;5069787;28;19908;-76
2023/05/20 09:22:04;;;;;;;;;;;29.10;50.10;;;;;;5085328;28;20373;-77
2023/05/20 09:24:30;;;;;;;;;;;29.10;50.10;;;;;;5069709;28;19909;-78
2023/05/20 09:27:03;;;;;;;;;;;28.80;50.70;;;;;;5069421;28;19961;-76
2023/05/20 09:29:32;;;;;;;;;;;28.80;50.10;;;;;;5085041;28;19977;-78
2023/05/20 09:32:00;;;;;;;;;;;28.80;50.90;;;;;;5085185;28;20438;-76
2023/05/20 09:34:25;;;;;;;;;;;28.90;51.30;;;;;;5069767;28;19954;-75
2023/05/20 09:36:52;;;;;;;;;;;28.80;50.70;;;;;;5069294;28;19951;-80
2023/05/20 09:39:22;;;;;;;;;;;28.90;51.50;;;;;;5069480;28;19908;-75
2023/05/20 09:41:56;;;;;;;;;;;28.70;50.70;;;;;;5068247;28;19999;-76
2023/05/20 09:44:22;;;;;;;;;;;28.80;51.00;;;;;;5069604;28;19912;-76
2023/05/20 09:46:49;;;;;;;;;;;28.70;51.50;;;;;;5068271;28;19915;-76
2023/05/20 09:49:16;;;;;;;;;;;28.60;50.80;;;;;;5069321;28;19995;-77
2023/05/20 09:51:42;;;;;;;;;;;28.60;51.60;;;;;;5084794;28;19962;-75
2023/05/20 09:54:10;;;;;;;;;;;28.80;52.80;;;;;;5069128;28;19908;-76
2023/05/20 09:56:36;;;;;;;;;;;29.00;53.10;;;;;;5067929;28;20026;-75
2023/05/20 09:59:01;;;;;;;;;;;28.80;52.10;;;;;;5068870;28;20420;-78
2023/05/20 10:01:27;;;;;;;;;;;28.60;53.20;;;;;;5069069;28;19998;-77
2023/05/20 10:03:52;;;;;;;;;;;28.40;53.80;;;;;;5067729;28;19979;-79
2023/05/20 10:06:24;;;;;;;;;;;28.00;52.30;;;;;;5069097;28;19919;-77
2023/05/20 10:08:57;;;;;;;;;;;27.70;54.00;;;;;;5067384;28;19913;-77
2023/05/20 10:11:25;;;;;;;;;;;27.30;55.10;;;;;;5068882;28;19908;-76
2023/05/20 10:14:06;;;;;;;;;;;26.90;57.20;;;;;;5068952;28;19951;-76
2023/05/20 10:16:52;;;;;;;;;;;26.70;57.70;;;;;;5069086;28;19908;-76
2023/05/20 10:19:31;;;;;;;;;;;26.50;57.30;;;;;;5057505;28;19948;-78
2023/05/20 10:22:03;;;;;;;;;;;26.20;60.10;;;;;;5069421;28;19919;-77
2023/05/20 10:24:31;;;;;;;;;;;26.20;58.80;;;;;;5067743;28;19912;-78
2023/05/20 10:26:57;;;;;;;;;;;26.30;59.80;;;;;;5068420;28;19905;-77
2023/05/20 10:29:22;;;;;;;;;;;26.10;59.60;;;;;;5068905;28;19999;-76
2023/05/20 10:31:49;;;;;;;;;;;26.00;60.40;;;;;;5084297;28;19916;-77
2023/05/20 10:34:16;;;;;;;;;;;25.90;60.50;;;;;;5084187;28;20549;-77
2023/05/20 10:36:54;;;;;;;;;;;25.80;62.30;;;;;;5068507;28;19908;-77
2023/05/20 10:39:31;;;;;;;;;;;25.70;61.00;;;;;;5068730;28;19915;-78
2023/05/20 10:42:07;;;;;;;;;;;25.70;61.70;;;;;;5068802;28;19967;-78
2023/05/20 10:44:45;;;;;;;;;;;25.50;61.50;;;;;;5068720;28;19909;-78
2023/05/20 10:47:11;;;;;;;;;;;25.60;61.90;;;;;;5068056;28;19909;-78
2023/05/20 10:49:43;;;;;;;;;;;25.70;63.30;;;;;;5068470;28;19978;-77
2023/05/20 10:52:09;;;;;;;;;;;25.70;60.30;;;;;;5068889;28;19927;-76
2023/05/20 10:54:36;;;;;;;;;;;25.50;61.90;;;;;;5068533;28;19915;-77
2023/05/20 10:57:06;;;;;;;;;;;25.40;62.70;;;;;;5068420;28;20019;-77
2023/05/20 10:59:32;;;;;;;;;;;25.40;63.40;;;;;;5068313;28;19916;-76
2023/05/20 11:01:59;;;;;;;;;;;25.50;63.30;;;;;;5068862;28;19909;-77
2023/05/20 11:04:25;;;;;;;;;;;25.50;64.10;;;;;;5068636;28;20002;-77
2023/05/20 11:06:52;;;;;;;;;;;25.50;62.40;;;;;;5067122;28;19904;-77
2023/05/20 11:09:18;;;;;;;;;;;25.60;63.40;;;;;;5068301;28;19904;-77
2023/05/20 11:11:43;;;;;;;;;;;25.70;63.50;;;;;;5068429;28;19917;-77
2023/05/20 11:14:12;;;;;;;;;;;25.70;65.00;;;;;;5068519;28;20381;-77
2023/05/20 11:16:38;;;;;;;;;;;25.80;63.70;;;;;;5067137;28;19912;-77
2023/05/20 11:19:06;;;;;;;;;;;25.90;63.50;;;;;;5066781;28;19911;-77
2023/05/20 11:21:31;;;;;;;;;;;25.80;63.20;;;;;;5068404;28;19923;-76
2023/05/20 11:23:57;;;;;;;;;;;25.80;63.60;;;;;;5068195;28;19905;-77
2023/05/20 11:26:23;;;;;;;;;;;25.90;64.30;;;;;;5068050;28;20010;-78
2023/05/20 11:28:48;;;;;;;;;;;25.80;61.60;;;;;;5067951;28;19905;-77
2023/05/20 11:31:14;;;;;;;;;;;25.80;62.00;;;;;;5068417;28;19916;-76
2023/05/20 11:33:42;;;;;;;;;;;25.80;63.90;;;;;;5068079;28;19916;-77
2023/05/20 11:36:08;;;;;;;;;;;25.80;62.10;;;;;;5068095;28;19970;-77
2023/05/20 11:38:34;;;;;;;;;;;25.90;59.10;;;;;;5068181;28;19920;-77
2023/05/20 11:40:59;;;;;;;;;;;25.80;57.20;;;;;;5067942;28;19919;-76
2023/05/20 11:43:25;;;;;;;;;;;25.80;56.70;;;;;;5068028;28;19904;-77
2023/05/20 11:45:55;;;;;;;;;;;25.90;59.40;;;;;;5067801;28;19909;-78
2023/05/20 11:48:20;;;;;;;;;;;26.00;57.70;;;;;;5083372;28;19908;-78
2023/05/20 11:50:47;;;;;;;;;;;26.00;56.80;;;;;;5067452;28;19908;-76
2023/05/20 11:53:17;;;;;;;;;;;26.00;55.50;;;;;;5067258;28;19924;-77
2023/05/20 11:56:03;;;;;;;;;;;26.00;56.70;;;;;;5067713;28;19931;-76
2023/05/20 11:58:29;;;;;;;;;;;26.00;58.70;;;;;;5066179;28;19908;-77
2023/05/20 12:00:55;;;;;;;;;;;26.00;56.60;;;;;;5051642;28;19935;-76
2023/05/20 12:03:21;;;;;;;;;;;25.90;55.00;;;;;;5070581;28;20369;-76
2023/05/20 12:05:47;;;;;;;;;;;25.90;55.10;;;;;;5071350;28;19904;-77
2023/05/20 12:08:13;;;;;;;;;;;25.90;53.60;;;;;;5069978;28;19930;-76
2023/05/20 12:10:38;;;;;;;;;;;25.90;54.70;;;;;;5071193;28;19912;-77
2023/05/20 12:13:07;;;;;;;;;;;25.80;55.00;;;;;;5086844;28;19926;-76
2023/05/20 12:15:36;;;;;;;;;;;25.90;54.40;;;;;;5071338;28;19908;-78
2023/05/20 12:18:01;;;;;;;;;;;25.90;54.30;;;;;;5071233;28;19904;-76
2023/05/20 12:20:27;;;;;;;;;;;26.00;55.40;;;;;;5071125;28;20460;-77
2023/05/20 12:22:53;;;;;;;;;;;25.90;54.80;;;;;;5070853;28;19995;-78
2023/05/20 12:25:19;;;;;;;;;;;26.00;54.90;;;;;;5070744;28;20018;-77
2023/05/20 12:27:48;;;;;;;;;;;25.80;54.70;;;;;;5071341;28;20071;-78
2023/05/20 12:30:15;;;;;;;;;;;25.90;56.40;;;;;;5070657;28;19916;-77
2023/05/20 12:32:42;;;;;;;;;;;26.00;53.40;;;;;;5086191;28;19912;-77
2023/05/20 12:35:08;;;;;;;;;;;26.10;55.50;;;;;;5070835;28;19915;-76
2023/05/20 12:37:33;;;;;;;;;;;26.00;53.50;;;;;;5070741;28;19908;-76
2023/05/20 12:39:59;;;;;;;;;;;25.90;54.50;;;;;;5086331;28;20387;-77
2023/05/20 12:42:24;;;;;;;;;;;25.90;56.10;;;;;;5070846;28;19909;-77
2023/05/20 12:44:50;;;;;;;;;;;25.90;56.20;;;;;;5070465;28;19905;-77
2023/05/20 12:47:15;;;;;;;;;;;26.00;56.40;;;;;;5070442;28;19912;-76
2023/05/20 12:49:41;;;;;;;;;;;25.90;55.20;;;;;;5070565;28;19908;-77
2023/05/20 12:52:07;;;;;;;;;;;25.90;56.60;;;;;;5070160;28;19916;-77
2023/05/20 12:54:32;;;;;;;;;;;25.80;54.60;;;;;;5070382;28;19909;-77
2023/05/20 12:56:58;;;;;;;;;;;25.90;54.30;;;;;;5069995;28;19908;-75
2023/05/20 12:59:23;;;;;;;;;;;25.90;53.80;;;;;;5070177;28;19908;-77
2023/05/20 13:01:49;;;;;;;;;;;25.90;56.60;;;;;;5070267;28;19987;-76
2023/05/20 13:04:15;;;;;;;;;;;25.80;57.70;;;;;;5070212;28;20369;-77
2023/05/20 13:06:41;;;;;;;;;;;25.90;56.70;;;;;;5069332;28;20444;-77
2023/05/20 13:09:07;;;;;;;;;;;25.90;57.40;;;;;;5068169;28;19908;-77
2023/05/20 13:11:33;;;;;;;;;;;25.90;56.40;;;;;;5068743;28;19923;-77
2023/05/20 13:13:58;;;;;;;;;;;25.90;54.60;;;;;;5069131;28;19987;-77
2023/05/20 13:16:24;;;;;;;;;;;25.90;55.30;;;;;;5069373;28;20384;-77
2023/05/20 13:18:50;;;;;;;;;;;26.00;55.20;;;;;;5069779;28;19948;-76
2023/05/20 13:21:15;;;;;;;;;;;25.90;55.30;;;;;;5068563;28;19916;-77
2023/05/20 13:23:41;;;;;;;;;;;25.90;55.10;;;;;;5069818;28;19908;-76
2023/05/20 13:26:07;;;;;;;;;;;25.80;55.20;;;;;;5069728;28;19908;-77
2023/05/20 13:28:33;;;;;;;;;;;25.80;56.90;;;;;;5069763;28;20365;-77
2023/05/20 13:30:58;;;;;;;;;;;25.90;56.80;;;;;;5069347;28;19931;-77
2023/05/20 13:33:24;;;;;;;;;;;25.90;56.30;;;;;;5069569;28;20002;-77
2023/05/20 13:35:50;;;;;;;;;;;25.90;56.40;;;;;;5069665;28;19971;-77
2023/05/20 13:38:16;;;;;;;;;;;25.90;54.90;;;;;;5069356;28;19940;-78
2023/05/20 13:40:41;;;;;;;;;;;25.90;53.70;;;;;;5069501;28;20443;-77
2023/05/20 13:43:07;;;;;;;;;;;25.90;55.40;;;;;;5069862;28;20017;-77
2023/05/20 13:45:32;;;;;;;;;;;26.00;55.30;;;;;;5069615;28;19904;-77
2023/05/20 13:47:58;;;;;;;;;;;26.00;55.90;;;;;;5069428;28;19908;-77
2023/05/20 13:50:24;;;;;;;;;;;26.10;53.60;;;;;;5069556;28;20276;-77
2023/05/20 13:52:50;;;;;;;;;;;26.10;53.20;;;;;;5069082;28;19920;-76
2023/05/20 13:55:16;;;;;;;;;;;26.10;54.10;;;;;;5069156;28;19973;-76
2023/05/20 13:57:41;;;;;;;;;;;26.00;53.90;;;;;;5069229;28;19904;-76
2023/05/20 14:00:08;;;;;;;;;;;26.00;51.70;;;;;;5069182;28;19905;-77
2023/05/20 14:02:33;;;;;;;;;;;26.10;53.70;;;;;;5069373;28;19908;-76
2023/05/20 14:04:59;;;;;;;;;;;26.10;52.80;;;;;;5068993;28;20423;-76
2023/05/20 14:07:25;;;;;;;;;;;26.10;52.70;;;;;;5069088;28;19904;-76
2023/05/20 14:09:50;;;;;;;;;;;26.10;52.60;;;;;;5068834;28;19915;-76